createdAt,value
2022-12-09T00:00:22.747Z,90.90
2022-12-09T00:00:54.537Z,90.90
2022-12-09T00:01:26.543Z,91.00
2022-12-09T00:01:58.754Z,91.00
2022-12-09T00:02:30.829Z,90.90
2022-12-09T00:03:02.850Z,90.90
2022-12-09T00:03:35.647Z,91.30
2022-12-09T00:04:08.072Z,91.00
2022-12-09T00:04:40.388Z,91.00
2022-12-09T00:05:12.370Z,90.70
2022-12-09T00:05:44.407Z,90.90
2022-12-09T00:06:22.234Z,91.00
2022-12-09T00:06:54.105Z,90.90
2022-12-09T00:07:25.966Z,91.00
2022-12-09T00:07:57.820Z,91.00
2022-12-09T00:08:29.741Z,91.00
2022-12-09T00:09:01.899Z,90.80
2022-12-09T00:09:33.896Z,90.90
2022-12-09T00:10:06.939Z,91.00
2022-12-09T00:10:39.137Z,90.90
2022-12-09T00:11:11.136Z,91.20
2022-12-09T00:11:44.152Z,91.00
2022-12-09T00:12:15.949Z,91.00
2022-12-09T00:12:47.917Z,90.70
2022-12-09T00:13:19.837Z,91.00
2022-12-09T00:13:57.349Z,91.00
2022-12-09T00:14:29.167Z,90.90
2022-12-09T00:15:00.983Z,90.90
2022-12-09T00:15:33.074Z,91.00
2022-12-09T00:16:14.064Z,90.90
2022-12-09T00:16:46.201Z,90.90
2022-12-09T00:17:18.406Z,91.50
2022-12-09T00:17:50.582Z,90.90
2022-12-09T00:18:22.367Z,90.90
2022-12-09T00:18:54.173Z,90.70
2022-12-09T00:19:25.974Z,90.70
2022-12-09T00:19:57.689Z,90.90
2022-12-09T00:20:29.738Z,90.90
2022-12-09T00:21:24.277Z,90.90
2022-12-09T00:21:56.220Z,91.10
2022-12-09T00:22:28.037Z,90.70
2022-12-09T00:23:00.133Z,90.90
2022-12-09T00:23:32.242Z,90.90
2022-12-09T00:24:07.010Z,90.90
2022-12-09T00:24:39.119Z,90.90
2022-12-09T00:25:11.144Z,91.00
2022-12-09T00:25:42.933Z,91.00
2022-12-09T00:26:16.411Z,90.70
2022-12-09T00:26:48.304Z,91.00
2022-12-09T00:27:20.198Z,91.00
2022-12-09T00:27:51.908Z,91.00
2022-12-09T00:28:23.848Z,90.90
2022-12-09T00:28:56.845Z,91.00
2022-12-09T00:29:28.596Z,91.00
2022-12-09T00:30:00.304Z,91.00
2022-12-09T00:30:32.232Z,91.00
2022-12-09T00:31:04.791Z,91.00
2022-12-09T00:31:38.807Z,91.20
2022-12-09T00:32:11.030Z,91.00
2022-12-09T00:32:43.273Z,91.00
2022-12-09T00:33:16.487Z,91.00
2022-12-09T00:33:48.198Z,91.10
2022-12-09T00:34:19.967Z,91.00
2022-12-09T00:34:51.790Z,91.10
2022-12-09T00:35:23.911Z,91.10
2022-12-09T00:35:56.029Z,91.00
2022-12-09T00:36:29.325Z,91.00
2022-12-09T00:37:01.279Z,91.00
2022-12-09T00:37:34.457Z,90.80
2022-12-09T00:38:06.348Z,91.10
2022-12-09T00:38:39.206Z,90.40
2022-12-09T00:39:12.275Z,91.10
2022-12-09T00:39:44.130Z,90.80
2022-12-09T00:40:16.823Z,91.00
2022-12-09T00:40:48.749Z,91.10
2022-12-09T00:41:20.821Z,91.10
2022-12-09T00:41:52.742Z,90.80
2022-12-09T00:42:24.825Z,91.10
2022-12-09T00:42:56.730Z,91.10
2022-12-09T00:43:28.465Z,91.10
2022-12-09T00:44:00.418Z,91.10
2022-12-09T00:44:32.455Z,90.90
2022-12-09T00:45:05.195Z,91.10
2022-12-09T00:45:37.391Z,91.10
2022-12-09T00:46:10.537Z,90.90
2022-12-09T00:46:42.592Z,91.10
2022-12-09T00:47:14.633Z,90.80
2022-12-09T00:47:46.582Z,90.90
2022-12-09T00:48:18.548Z,91.10
2022-12-09T00:48:50.452Z,91.10
2022-12-09T00:49:22.253Z,91.10
2022-12-09T00:49:54.085Z,91.60
2022-12-09T00:50:25.981Z,91.70
2022-12-09T00:50:57.779Z,91.20
2022-12-09T00:51:29.620Z,91.10
2022-12-09T00:52:01.635Z,91.20
2022-12-09T00:52:33.610Z,90.90
2022-12-09T00:53:05.484Z,91.20
2022-12-09T00:53:37.359Z,91.20
2022-12-09T00:54:09.594Z,90.90
2022-12-09T00:54:41.583Z,91.20
2022-12-09T00:55:14.028Z,91.20
2022-12-09T00:55:46.735Z,91.20
2022-12-09T00:56:18.772Z,91.20
2022-12-09T00:56:50.687Z,91.30
2022-12-09T00:57:22.442Z,91.20
2022-12-09T00:57:54.162Z,91.20
2022-12-09T00:58:26.244Z,91.20
2022-12-09T00:58:59.227Z,91.00
2022-12-09T00:59:31.331Z,91.20
2022-12-09T01:00:03.999Z,91.30
2022-12-09T01:00:36.328Z,91.30
2022-12-09T01:01:08.510Z,91.20
2022-12-09T01:01:41.386Z,91.30
2022-12-09T01:02:13.225Z,91.30
2022-12-09T01:02:45.245Z,91.30
2022-12-09T01:03:18.699Z,91.30
2022-12-09T01:03:50.993Z,91.30
2022-12-09T01:04:25.073Z,91.00
2022-12-09T01:04:57.409Z,91.30
2022-12-09T01:05:29.373Z,91.30
2022-12-09T01:06:01.226Z,91.30
2022-12-09T01:06:33.248Z,91.30
2022-12-09T01:07:05.152Z,91.40
2022-12-09T01:07:37.567Z,91.40
2022-12-09T01:08:10.603Z,91.30
2022-12-09T01:08:43.095Z,91.10
2022-12-09T01:09:15.050Z,91.40
2022-12-09T01:09:47.161Z,91.40
2022-12-09T01:10:19.251Z,91.10
2022-12-09T01:10:51.077Z,91.20
2022-12-09T01:11:26.421Z,91.40
2022-12-09T01:11:58.486Z,91.40
2022-12-09T01:12:30.324Z,91.40
2022-12-09T01:13:02.925Z,91.20
2022-12-09T01:13:34.722Z,91.20
2022-12-09T01:14:06.825Z,91.50
2022-12-09T01:14:38.610Z,91.50
2022-12-09T01:15:11.155Z,91.50
2022-12-09T01:15:44.811Z,91.50
2022-12-09T01:16:22.422Z,91.50
2022-12-09T01:16:54.348Z,91.50
2022-12-09T01:17:26.910Z,92.40
2022-12-09T01:17:58.895Z,91.60
2022-12-09T01:18:30.710Z,91.50
2022-12-09T01:19:06.497Z,91.50
2022-12-09T01:19:40.452Z,91.50
2022-12-09T01:20:12.483Z,91.50
2022-12-09T01:20:44.491Z,91.70
2022-12-09T01:21:16.686Z,91.60
2022-12-09T01:21:48.664Z,91.60
2022-12-09T01:22:20.793Z,91.60
2022-12-09T01:22:52.631Z,91.60
2022-12-09T01:23:24.524Z,91.60
2022-12-09T01:23:56.789Z,91.60
2022-12-09T01:24:28.665Z,91.60
2022-12-09T01:25:00.950Z,91.60
2022-12-09T01:25:32.906Z,91.60
2022-12-09T01:26:06.766Z,91.70
2022-12-09T01:26:39.931Z,91.60
2022-12-09T01:27:11.765Z,91.70
2022-12-09T01:27:43.827Z,91.70
2022-12-09T01:28:15.620Z,91.70
2022-12-09T01:28:52.455Z,91.70
2022-12-09T01:29:24.368Z,91.50
2022-12-09T01:29:56.103Z,91.80
2022-12-09T01:30:27.911Z,91.80
2022-12-09T01:31:15.814Z,91.70
2022-12-09T01:31:48.355Z,91.80
2022-12-09T01:32:20.446Z,91.80
2022-12-09T01:32:52.501Z,91.70
2022-12-09T01:33:25.352Z,91.50
2022-12-09T01:33:57.516Z,91.50
2022-12-09T01:34:30.620Z,91.80
2022-12-09T01:35:04.648Z,91.80
2022-12-09T01:35:40.759Z,92.40
2022-12-09T01:36:26.361Z,91.70
2022-12-09T01:36:58.246Z,91.80
2022-12-09T01:37:32.502Z,91.80
2022-12-09T01:38:05.468Z,91.80
2022-12-09T01:38:37.268Z,91.60
2022-12-09T01:39:11.493Z,91.90
2022-12-09T01:39:43.385Z,91.80
2022-12-09T01:40:17.748Z,91.50
2022-12-09T01:40:49.694Z,91.80
2022-12-09T01:41:22.201Z,91.90
2022-12-09T01:41:54.292Z,91.90
2022-12-09T01:42:27.539Z,91.90
2022-12-09T01:42:59.242Z,91.80
2022-12-09T01:43:31.128Z,91.70
2022-12-09T01:44:11.094Z,91.90
2022-12-09T01:45:18.059Z,91.90
2022-12-09T01:45:50.009Z,91.90
2022-12-09T01:46:21.858Z,92.00
2022-12-09T01:46:59.017Z,92.80
2022-12-09T01:47:31.321Z,91.90
2022-12-09T01:48:14.206Z,92.00
2022-12-09T01:48:48.891Z,92.10
2022-12-09T01:49:32.374Z,92.00
2022-12-09T01:50:05.786Z,91.90
2022-12-09T01:51:00.665Z,92.00
2022-12-09T01:51:32.859Z,91.30
2022-12-09T01:52:14.265Z,92.00
2022-12-09T01:52:47.545Z,92.00
2022-12-09T01:53:25.089Z,92.00
2022-12-09T01:53:58.384Z,92.00
2022-12-09T01:54:31.499Z,92.10
2022-12-09T01:55:03.992Z,92.00
2022-12-09T01:55:37.253Z,92.10
2022-12-09T01:56:19.211Z,92.00
2022-12-09T01:56:52.064Z,92.00
2022-12-09T01:57:23.991Z,92.10
2022-12-09T01:57:56.272Z,92.10
2022-12-09T01:58:29.780Z,91.80
2022-12-09T01:59:09.888Z,92.10
2022-12-09T01:59:43.622Z,92.00
2022-12-09T02:00:15.869Z,92.10
2022-12-09T02:00:50.378Z,92.10
2022-12-09T02:01:26.063Z,91.80
2022-12-09T02:02:02.856Z,92.10
2022-12-09T02:02:37.911Z,92.00
2022-12-09T02:03:10.613Z,92.10
2022-12-09T02:03:42.742Z,92.10
2022-12-09T02:04:15.160Z,92.10
2022-12-09T02:04:49.850Z,92.10
2022-12-09T02:05:24.718Z,92.00
2022-12-09T02:06:02.097Z,92.00
2022-12-09T02:06:37.833Z,92.10
2022-12-09T02:07:11.883Z,92.10
2022-12-09T02:07:43.826Z,92.10
2022-12-09T02:08:18.704Z,92.10
2022-12-09T02:08:52.343Z,92.00
2022-12-09T02:09:26.622Z,92.10
2022-12-09T02:10:01.288Z,92.10
2022-12-09T02:11:03.956Z,92.10
2022-12-09T02:11:41.891Z,92.70
2022-12-09T02:12:25.629Z,92.00
2022-12-09T02:13:08.999Z,92.00
2022-12-09T02:13:52.677Z,92.10
2022-12-09T02:14:48.869Z,92.10
2022-12-09T02:15:34.008Z,92.10
2022-12-09T02:16:12.987Z,92.10
2022-12-09T02:17:14.003Z,92.10
2022-12-09T02:17:52.507Z,92.10
2022-12-09T02:18:55.204Z,92.10
2022-12-09T02:19:35.557Z,92.10
2022-12-09T02:20:23.714Z,92.00
2022-12-09T02:21:09.470Z,92.00
2022-12-09T02:21:46.867Z,92.10
2022-12-09T02:22:27.270Z,92.10
2022-12-09T02:23:15.242Z,92.10
2022-12-09T02:24:08.960Z,92.10
2022-12-09T02:25:12.917Z,92.20
2022-12-09T02:26:22.859Z,92.10
2022-12-09T02:27:21.825Z,92.10
2022-12-09T02:28:20.013Z,92.10
2022-12-09T02:29:12.578Z,92.20
2022-12-09T02:30:24.529Z,92.20
2022-12-09T02:31:23.719Z,92.20
2022-12-09T02:32:20.041Z,92.20
2022-12-09T02:33:22.984Z,92.20
2022-12-09T02:34:18.278Z,92.20
2022-12-09T02:35:28.462Z,92.20
2022-12-09T02:36:11.571Z,92.20
2022-12-09T02:36:50.611Z,92.20
2022-12-09T02:37:58.362Z,92.30
2022-12-09T02:38:33.973Z,92.20
2022-12-09T02:39:09.917Z,92.20
2022-12-09T02:39:50.146Z,92.20
2022-12-09T02:40:32.529Z,92.20
2022-12-09T02:41:15.229Z,92.20
2022-12-09T02:41:54.767Z,92.20
2022-12-09T02:42:35.746Z,92.20
2022-12-09T02:43:11.762Z,92.20
2022-12-09T02:44:03.167Z,92.20
2022-12-09T02:44:39.482Z,92.20
2022-12-09T02:45:16.334Z,92.20
2022-12-09T02:45:54.788Z,92.70
2022-12-09T02:46:28.547Z,92.20
2022-12-09T02:47:03.912Z,92.30
2022-12-09T02:47:51.309Z,92.20
2022-12-09T02:48:33.157Z,92.30
2022-12-09T02:49:05.721Z,92.30
2022-12-09T02:49:41.334Z,92.30
2022-12-09T02:50:17.925Z,92.20
2022-12-09T02:50:54.055Z,92.00
2022-12-09T02:51:31.735Z,92.30
2022-12-09T02:52:06.391Z,92.30
2022-12-09T02:52:38.928Z,92.20
2022-12-09T02:53:13.606Z,92.20
2022-12-09T02:53:49.049Z,92.20
2022-12-09T02:54:24.621Z,92.20
2022-12-09T02:55:00.453Z,92.20
2022-12-09T02:55:34.296Z,92.20
2022-12-09T02:56:08.325Z,92.20
2022-12-09T02:56:45.596Z,92.20
2022-12-09T02:57:23.359Z,92.20
2022-12-09T02:58:00.023Z,92.20
2022-12-09T02:58:34.593Z,92.20
2022-12-09T02:59:06.934Z,92.30
2022-12-09T02:59:38.921Z,92.10
2022-12-09T03:00:14.951Z,92.60
2022-12-09T03:00:47.295Z,92.30
2022-12-09T03:01:34.819Z,92.30
2022-12-09T03:02:28.418Z,92.30
2022-12-09T03:03:06.677Z,92.30
2022-12-09T03:03:39.173Z,92.20
2022-12-09T03:04:20.338Z,92.30
2022-12-09T03:05:23.798Z,92.30
2022-12-09T03:06:09.469Z,92.30
2022-12-09T03:06:56.631Z,92.20
2022-12-09T03:07:52.470Z,92.20
2022-12-09T03:08:47.553Z,92.20
2022-12-09T03:09:33.274Z,92.20
2022-12-09T03:10:34.460Z,92.20
2022-12-09T03:11:12.884Z,92.20
2022-12-09T03:11:47.653Z,92.30
2022-12-09T03:12:21.295Z,92.30
2022-12-09T03:13:03.868Z,92.80
2022-12-09T03:13:50.600Z,92.20
2022-12-09T03:14:36.150Z,92.20
2022-12-09T03:15:14.235Z,93.00
2022-12-09T03:15:53.052Z,92.20
2022-12-09T03:16:42.524Z,92.20
2022-12-09T03:17:25.860Z,92.20
2022-12-09T03:18:01.960Z,92.20
2022-12-09T03:18:37.705Z,92.20
2022-12-09T03:19:24.156Z,92.20
2022-12-09T03:20:22.657Z,92.20
2022-12-09T03:20:55.504Z,92.60
2022-12-09T03:21:31.760Z,92.00
2022-12-09T03:22:09.741Z,92.20
2022-12-09T03:22:45.051Z,92.20
2022-12-09T03:23:20.760Z,92.20
2022-12-09T03:23:56.436Z,92.30
2022-12-09T03:24:36.351Z,92.30
2022-12-09T03:25:18.438Z,92.20
2022-12-09T03:25:54.366Z,92.20
2022-12-09T03:26:30.089Z,92.20
2022-12-09T03:27:07.757Z,92.20
2022-12-09T03:28:02.923Z,92.20
2022-12-09T03:28:44.985Z,92.20
2022-12-09T03:29:23.180Z,92.20
2022-12-09T03:29:57.420Z,92.20
2022-12-09T03:30:37.388Z,92.30
2022-12-09T03:31:14.849Z,92.30
2022-12-09T03:31:48.615Z,92.20
2022-12-09T03:32:26.760Z,92.20
2022-12-09T03:32:58.847Z,92.20
2022-12-09T03:33:32.404Z,93.10
2022-12-09T03:34:09.745Z,92.20
2022-12-09T03:34:46.801Z,92.20
2022-12-09T03:35:26.573Z,92.20
2022-12-09T03:36:03.334Z,92.20
2022-12-09T03:36:40.404Z,92.20
2022-12-09T03:37:17.624Z,92.20
2022-12-09T03:37:51.832Z,92.20
2022-12-09T03:38:31.055Z,92.20
2022-12-09T03:39:12.195Z,92.10
2022-12-09T03:39:46.310Z,91.50
2022-12-09T03:40:24.360Z,92.20
2022-12-09T03:41:05.566Z,92.10
2022-12-09T03:41:42.261Z,92.10
2022-12-09T03:42:26.679Z,92.20
2022-12-09T03:43:16.312Z,92.20
2022-12-09T03:43:53.647Z,92.20
2022-12-09T03:44:51.926Z,92.10
2022-12-09T03:45:24.844Z,92.10
2022-12-09T03:45:58.302Z,92.10
2022-12-09T03:46:30.693Z,92.10
2022-12-09T03:47:06.138Z,92.20
2022-12-09T03:47:38.901Z,92.10
2022-12-09T03:48:12.263Z,92.20
2022-12-09T03:48:44.214Z,92.10
2022-12-09T03:49:16.587Z,92.20
2022-12-09T03:49:48.677Z,92.10
2022-12-09T03:50:23.436Z,92.10
2022-12-09T03:51:09.942Z,92.10
2022-12-09T03:52:04.611Z,92.10
2022-12-09T03:52:50.125Z,92.00
2022-12-09T03:53:32.866Z,92.10
2022-12-09T03:54:29.797Z,92.10
2022-12-09T03:55:12.868Z,92.00
2022-12-09T03:55:57.665Z,92.10
2022-12-09T03:56:34.853Z,92.10
2022-12-09T03:57:18.501Z,92.00
2022-12-09T03:57:55.166Z,92.10
2022-12-09T03:58:31.693Z,92.00
2022-12-09T03:59:08.211Z,92.00
2022-12-09T03:59:43.119Z,92.10
2022-12-09T04:00:15.772Z,92.00
2022-12-09T04:00:49.199Z,92.10
2022-12-09T04:01:25.336Z,92.00
2022-12-09T04:01:58.071Z,92.00
2022-12-09T04:02:30.355Z,92.10
2022-12-09T04:03:02.727Z,92.00
2022-12-09T04:03:34.997Z,92.00
2022-12-09T04:04:09.083Z,92.00
2022-12-09T04:04:42.222Z,91.80
2022-12-09T04:05:14.589Z,91.70
2022-12-09T04:05:47.261Z,92.20
2022-12-09T04:06:19.146Z,92.00
2022-12-09T04:06:53.593Z,92.00
2022-12-09T04:07:25.484Z,91.90
2022-12-09T04:07:57.391Z,92.00
2022-12-09T04:08:29.344Z,92.20
2022-12-09T04:09:02.785Z,91.90
2022-12-09T04:09:35.407Z,91.90
2022-12-09T04:10:08.443Z,92.00
2022-12-09T04:10:40.510Z,91.90
2022-12-09T04:11:12.341Z,91.70
2022-12-09T04:11:44.133Z,91.90
2022-12-09T04:12:15.905Z,91.90
2022-12-09T04:12:47.655Z,91.90
2022-12-09T04:13:19.799Z,92.00
2022-12-09T04:13:51.749Z,91.90
2022-12-09T04:14:23.781Z,91.60
2022-12-09T04:14:55.553Z,91.90
2022-12-09T04:15:27.547Z,91.90
2022-12-09T04:15:59.459Z,91.90
2022-12-09T04:16:31.210Z,91.90
2022-12-09T04:17:04.141Z,91.80
2022-12-09T04:17:36.194Z,91.80
2022-12-09T04:18:08.126Z,91.80
2022-12-09T04:18:40.265Z,91.80
2022-12-09T04:19:12.972Z,91.80
2022-12-09T04:19:45.074Z,91.90
2022-12-09T04:20:16.945Z,91.60
2022-12-09T04:20:49.022Z,91.80
2022-12-09T04:21:20.927Z,91.80
2022-12-09T04:21:52.800Z,92.00
2022-12-09T04:22:24.764Z,91.70
2022-12-09T04:22:58.062Z,91.70
2022-12-09T04:23:29.877Z,91.80
2022-12-09T04:24:01.678Z,91.70
2022-12-09T04:24:33.723Z,91.70
2022-12-09T04:25:06.006Z,91.70
2022-12-09T04:25:38.324Z,91.50
2022-12-09T04:26:15.559Z,91.70
2022-12-09T04:26:47.534Z,91.70
2022-12-09T04:27:19.628Z,91.50
2022-12-09T04:27:52.147Z,91.70
2022-12-09T04:28:24.179Z,91.60
2022-12-09T04:28:56.279Z,91.60
2022-12-09T04:29:29.439Z,91.40
2022-12-09T04:30:01.564Z,91.70
2022-12-09T04:30:33.582Z,91.60
2022-12-09T04:31:06.041Z,91.60
2022-12-09T04:31:38.825Z,91.70
2022-12-09T04:32:11.127Z,91.60
2022-12-09T04:32:44.043Z,91.90
2022-12-09T04:33:15.975Z,91.60
2022-12-09T04:33:48.469Z,91.60
2022-12-09T04:34:20.217Z,91.60
2022-12-09T04:34:52.306Z,91.60
2022-12-09T04:35:24.375Z,91.60
2022-12-09T04:36:03.704Z,91.60
2022-12-09T04:36:35.655Z,91.60
2022-12-09T04:37:07.449Z,91.60
2022-12-09T04:37:39.633Z,91.60
2022-12-09T04:38:11.501Z,91.60
2022-12-09T04:38:44.188Z,91.60
2022-12-09T04:39:16.395Z,91.60
2022-12-09T04:39:49.288Z,91.60
2022-12-09T04:40:23.941Z,91.40
2022-12-09T04:40:56.798Z,91.60
2022-12-09T04:41:28.635Z,91.60
2022-12-09T04:42:01.196Z,91.30
2022-12-09T04:42:33.965Z,91.60
2022-12-09T04:43:06.187Z,91.50
2022-12-09T04:43:39.615Z,91.60
2022-12-09T04:44:11.521Z,91.60
2022-12-09T04:44:43.620Z,91.30
2022-12-09T04:45:15.412Z,91.50
2022-12-09T04:45:47.320Z,91.60
2022-12-09T04:46:19.528Z,91.60
2022-12-09T04:46:51.411Z,91.50
2022-12-09T04:47:23.336Z,91.30
2022-12-09T04:47:58.209Z,91.50
2022-12-09T04:48:30.230Z,91.50
2022-12-09T04:49:02.035Z,91.50
2022-12-09T04:49:33.824Z,91.50
2022-12-09T04:50:07.045Z,91.50
2022-12-09T04:50:41.823Z,91.50
2022-12-09T04:51:15.005Z,91.20
2022-12-09T04:51:47.036Z,91.40
2022-12-09T04:52:19.213Z,91.50
2022-12-09T04:52:51.036Z,91.00
2022-12-09T04:53:23.302Z,91.40
2022-12-09T04:53:55.106Z,91.80
2022-12-09T04:54:27.047Z,92.10
2022-12-09T04:54:58.757Z,91.50
2022-12-09T04:55:30.488Z,91.20
2022-12-09T04:56:09.202Z,91.50
2022-12-09T04:56:41.901Z,91.40
2022-12-09T04:57:13.772Z,91.30
2022-12-09T04:57:45.561Z,91.40
2022-12-09T04:58:17.651Z,91.40
2022-12-09T04:58:51.034Z,91.30
2022-12-09T04:59:23.011Z,91.30
2022-12-09T04:59:55.042Z,91.30
2022-12-09T05:00:27.461Z,91.40
2022-12-09T05:00:59.737Z,91.30
2022-12-09T05:01:32.498Z,91.20
2022-12-09T05:02:04.459Z,91.40
2022-12-09T05:02:36.952Z,91.40
2022-12-09T05:03:09.335Z,91.30
2022-12-09T05:03:41.998Z,91.40
2022-12-09T05:04:14.135Z,91.10
2022-12-09T05:04:46.959Z,91.40
2022-12-09T05:05:19.166Z,91.40
2022-12-09T05:05:51.476Z,91.40
2022-12-09T05:06:23.963Z,91.40
2022-12-09T05:06:56.511Z,91.40
2022-12-09T05:07:31.327Z,91.50
2022-12-09T05:08:03.394Z,91.40
2022-12-09T05:08:35.941Z,91.40
2022-12-09T05:09:12.372Z,91.40
2022-12-09T05:09:44.522Z,91.40
2022-12-09T05:10:17.283Z,91.90
2022-12-09T05:10:50.564Z,91.40
2022-12-09T05:11:24.118Z,91.20
2022-12-09T05:11:59.414Z,91.40
2022-12-09T05:12:33.407Z,91.40
2022-12-09T05:13:05.495Z,91.30
2022-12-09T05:13:37.583Z,91.40
2022-12-09T05:14:09.611Z,91.10
2022-12-09T05:14:41.691Z,91.40
2022-12-09T05:15:13.843Z,91.40
2022-12-09T05:15:45.772Z,91.40
2022-12-09T05:16:20.076Z,91.40
2022-12-09T05:16:52.346Z,92.20
2022-12-09T05:17:24.891Z,91.40
2022-12-09T05:17:59.591Z,91.40
2022-12-09T05:18:32.111Z,91.40
2022-12-09T05:19:05.418Z,91.40
2022-12-09T05:19:37.379Z,91.40
2022-12-09T05:20:09.788Z,91.40
2022-12-09T05:20:41.855Z,91.40
2022-12-09T05:21:17.334Z,91.40
2022-12-09T05:21:49.686Z,91.40
2022-12-09T05:22:21.727Z,92.00
2022-12-09T05:22:53.792Z,91.40
2022-12-09T05:23:26.027Z,91.40
2022-12-09T05:23:58.265Z,91.20
2022-12-09T05:24:31.834Z,91.40
2022-12-09T05:25:04.080Z,91.40
2022-12-09T05:25:36.249Z,91.40
2022-12-09T05:26:11.443Z,91.40
2022-12-09T05:26:43.495Z,91.30
2022-12-09T05:27:16.099Z,91.20
2022-12-09T05:27:48.257Z,91.70
2022-12-09T05:28:20.118Z,91.40
2022-12-09T05:28:52.579Z,91.40
2022-12-09T05:29:24.912Z,91.40
2022-12-09T05:29:57.680Z,91.40
2022-12-09T05:30:30.001Z,91.40
2022-12-09T05:31:03.939Z,91.40
2022-12-09T05:31:35.949Z,91.30
2022-12-09T05:32:09.813Z,91.30
2022-12-09T05:32:42.126Z,91.30
2022-12-09T05:33:14.048Z,91.40
2022-12-09T05:33:48.972Z,91.40
2022-12-09T05:34:21.382Z,91.40
2022-12-09T05:34:53.371Z,91.40
2022-12-09T05:35:25.582Z,91.40
2022-12-09T05:35:59.070Z,91.40
2022-12-09T05:36:31.149Z,91.20
2022-12-09T05:37:03.657Z,91.40
2022-12-09T05:37:35.672Z,91.40
2022-12-09T05:38:07.505Z,92.10
2022-12-09T05:38:40.464Z,91.40
2022-12-09T05:39:12.793Z,91.20
2022-12-09T05:39:44.778Z,91.40
2022-12-09T05:40:16.662Z,91.20
2022-12-09T05:40:48.528Z,91.40
2022-12-09T05:41:21.621Z,91.40
2022-12-09T05:41:53.475Z,91.40
2022-12-09T05:42:25.383Z,91.40
2022-12-09T05:42:57.327Z,91.50
2022-12-09T05:43:29.597Z,91.80
2022-12-09T05:44:01.702Z,91.50
2022-12-09T05:44:33.893Z,91.40
2022-12-09T05:45:06.505Z,91.50
2022-12-09T05:45:38.485Z,91.50
2022-12-09T05:46:11.613Z,91.50
2022-12-09T05:46:43.580Z,91.50
2022-12-09T05:47:16.285Z,91.50
2022-12-09T05:47:48.431Z,91.50
2022-12-09T05:48:20.451Z,91.40
2022-12-09T05:48:53.145Z,91.50
2022-12-09T05:49:26.082Z,91.20
2022-12-09T05:50:00.715Z,91.50
2022-12-09T05:50:37.190Z,91.30
2022-12-09T05:51:22.432Z,91.50
2022-12-09T05:51:54.478Z,91.50
2022-12-09T05:52:26.308Z,91.60
2022-12-09T05:52:58.132Z,91.80
2022-12-09T05:53:30.406Z,91.60
2022-12-09T05:54:04.994Z,91.60
2022-12-09T05:54:37.551Z,91.60
2022-12-09T05:55:10.492Z,91.60
2022-12-09T05:55:42.355Z,91.60
2022-12-09T05:56:16.909Z,91.60
2022-12-09T05:56:49.121Z,91.60
2022-12-09T05:57:21.444Z,91.60
2022-12-09T05:57:55.014Z,91.60
2022-12-09T05:58:27.653Z,91.70
2022-12-09T05:58:59.650Z,91.40
2022-12-09T05:59:31.772Z,91.60
2022-12-09T06:00:08.449Z,92.10
2022-12-09T06:00:44.774Z,91.60
2022-12-09T06:01:17.336Z,91.70
2022-12-09T06:01:49.361Z,91.70
2022-12-09T06:02:21.266Z,91.60
2022-12-09T06:02:54.179Z,91.60
2022-12-09T06:03:26.428Z,91.70
2022-12-09T06:03:58.810Z,91.70
2022-12-09T06:04:30.873Z,91.70
2022-12-09T06:05:04.087Z,91.50
2022-12-09T06:05:37.294Z,91.70
2022-12-09T06:06:12.702Z,91.70
2022-12-09T06:06:45.141Z,91.90
2022-12-09T06:07:17.250Z,92.50
2022-12-09T06:07:49.846Z,91.70
2022-12-09T06:08:21.871Z,91.80
2022-12-09T06:08:59.536Z,91.70
2022-12-09T06:09:31.626Z,91.70
2022-12-09T06:10:05.143Z,91.80
2022-12-09T06:10:40.361Z,91.80
2022-12-09T06:11:18.911Z,91.70
2022-12-09T06:11:50.838Z,91.70
2022-12-09T06:12:22.859Z,91.80
2022-12-09T06:12:55.434Z,91.80
2022-12-09T06:13:27.541Z,90.90
2022-12-09T06:13:59.560Z,91.80
2022-12-09T06:14:31.959Z,91.80
2022-12-09T06:15:05.475Z,91.90
2022-12-09T06:15:39.180Z,91.60
2022-12-09T06:16:12.188Z,91.80
2022-12-09T06:16:44.237Z,91.80
2022-12-09T06:17:16.617Z,91.80
2022-12-09T06:17:48.895Z,91.80
2022-12-09T06:18:21.362Z,91.80
2022-12-09T06:18:53.595Z,91.80
2022-12-09T06:19:25.584Z,91.80
2022-12-09T06:19:58.111Z,92.40
2022-12-09T06:20:30.000Z,91.90
2022-12-09T06:21:07.523Z,91.90
2022-12-09T06:21:40.928Z,91.80
2022-12-09T06:22:12.871Z,91.80
2022-12-09T06:22:45.151Z,91.90
2022-12-09T06:23:17.169Z,91.90
2022-12-09T06:23:49.993Z,91.80
2022-12-09T06:24:22.403Z,91.90
2022-12-09T06:24:57.248Z,91.60
2022-12-09T06:25:29.152Z,91.90
2022-12-09T06:26:01.519Z,91.80
2022-12-09T06:26:33.802Z,91.90
2022-12-09T06:27:05.859Z,91.90
2022-12-09T06:27:37.884Z,91.90
2022-12-09T06:28:09.958Z,91.90
2022-12-09T06:28:42.259Z,91.90
2022-12-09T06:29:14.155Z,91.90
2022-12-09T06:29:46.740Z,91.90
2022-12-09T06:30:19.084Z,91.90
2022-12-09T06:30:51.250Z,92.00
2022-12-09T06:31:24.085Z,91.90
2022-12-09T06:31:56.942Z,92.10
2022-12-09T06:32:30.739Z,92.00
2022-12-09T06:33:04.348Z,91.90
2022-12-09T06:33:58.304Z,91.90
2022-12-09T06:34:31.487Z,92.00
2022-12-09T06:35:04.354Z,91.90
2022-12-09T06:35:37.171Z,92.00
2022-12-09T06:36:09.743Z,92.00
2022-12-09T06:36:42.280Z,92.00
2022-12-09T06:37:17.705Z,92.00
2022-12-09T06:37:52.852Z,92.00
2022-12-09T06:38:24.921Z,91.90
2022-12-09T06:39:00.412Z,92.00
2022-12-09T06:39:35.372Z,92.00
2022-12-09T06:40:08.649Z,92.00
2022-12-09T06:40:44.766Z,91.90
2022-12-09T06:41:17.123Z,91.90
2022-12-09T06:41:49.153Z,91.90
2022-12-09T06:42:21.219Z,91.90
2022-12-09T06:42:53.222Z,91.70
2022-12-09T06:43:25.308Z,91.70
2022-12-09T06:43:58.372Z,92.00
2022-12-09T06:44:30.272Z,92.00
2022-12-09T06:45:02.449Z,91.70
2022-12-09T06:45:36.586Z,92.00
2022-12-09T06:46:16.417Z,92.00
2022-12-09T06:46:48.760Z,92.00
2022-12-09T06:47:20.829Z,91.70
2022-12-09T06:47:52.928Z,91.80
2022-12-09T06:48:24.996Z,91.40
2022-12-09T06:48:56.919Z,92.00
2022-12-09T06:49:30.105Z,92.10
2022-12-09T06:50:06.677Z,92.10
2022-12-09T06:50:39.772Z,92.00
2022-12-09T06:51:12.891Z,92.10
2022-12-09T06:51:44.896Z,92.00
2022-12-09T06:52:17.146Z,92.10
2022-12-09T06:52:49.060Z,92.10
2022-12-09T06:53:21.084Z,92.10
2022-12-09T06:53:53.581Z,92.10
2022-12-09T06:54:26.583Z,92.00
2022-12-09T06:54:58.720Z,92.10
2022-12-09T06:55:30.588Z,92.10
2022-12-09T06:56:09.715Z,92.00
2022-12-09T06:56:44.173Z,92.10
2022-12-09T06:57:16.090Z,92.10
2022-12-09T06:57:48.158Z,91.90
2022-12-09T06:58:19.936Z,92.10
2022-12-09T06:58:52.049Z,92.10
2022-12-09T06:59:25.402Z,92.10
2022-12-09T06:59:57.492Z,92.00
2022-12-09T07:00:29.405Z,91.90
2022-12-09T07:01:14.065Z,92.40
2022-12-09T07:01:46.741Z,92.10
2022-12-09T07:02:18.934Z,92.10
2022-12-09T07:02:51.112Z,92.10
2022-12-09T07:03:23.513Z,92.20
2022-12-09T07:03:57.330Z,92.10
2022-12-09T07:04:30.084Z,92.10
2022-12-09T07:05:02.728Z,92.20
2022-12-09T07:05:35.219Z,92.60
2022-12-09T07:06:08.568Z,92.20
2022-12-09T07:06:45.232Z,92.10
2022-12-09T07:07:17.557Z,92.10
2022-12-09T07:07:53.232Z,92.10
2022-12-09T07:08:25.194Z,92.10
2022-12-09T07:09:00.905Z,92.20
2022-12-09T07:09:33.292Z,92.10
2022-12-09T07:10:09.035Z,92.20
2022-12-09T07:10:41.444Z,92.50
2022-12-09T07:11:13.908Z,92.20
2022-12-09T07:11:47.278Z,92.20
2022-12-09T07:12:19.226Z,92.10
2022-12-09T07:12:51.337Z,92.20
2022-12-09T07:13:23.534Z,92.20
2022-12-09T07:13:55.581Z,92.20
2022-12-09T07:14:27.545Z,92.20
2022-12-09T07:14:59.959Z,92.20
2022-12-09T07:15:32.148Z,92.20
2022-12-09T07:16:04.554Z,92.20
2022-12-09T07:16:36.959Z,92.10
2022-12-09T07:17:14.730Z,92.10
2022-12-09T07:17:47.000Z,91.40
2022-12-09T07:18:19.419Z,92.20
2022-12-09T07:18:52.007Z,92.20
2022-12-09T07:19:24.643Z,92.20
2022-12-09T07:19:59.041Z,92.20
2022-12-09T07:20:35.592Z,92.20
2022-12-09T07:21:12.708Z,92.10
2022-12-09T07:21:45.049Z,92.10
2022-12-09T07:22:17.293Z,91.60
2022-12-09T07:22:49.615Z,92.10
2022-12-09T07:23:21.435Z,92.20
2022-12-09T07:23:53.423Z,92.20
2022-12-09T07:24:26.160Z,91.90
2022-12-09T07:24:57.974Z,92.10
2022-12-09T07:25:30.191Z,92.10
2022-12-09T07:26:02.386Z,92.20
2022-12-09T07:26:34.526Z,92.20
2022-12-09T07:27:11.839Z,92.10
2022-12-09T07:27:46.462Z,92.20
2022-12-09T07:28:18.535Z,92.20
2022-12-09T07:28:50.644Z,91.90
2022-12-09T07:29:22.950Z,92.20
2022-12-09T07:29:54.896Z,92.20